KWAL/WAL METAR and TAF weather

Enter ICAO airport designator
Station Type Date Time Source
KWAL METAR 2020/01/19 13:54 UTC NOAA

KWAL 191354Z AUTO 33005KT 10SM FEW012 BKN019 08/07 A2982 RMK AO2 SLP095 T00830067


Station Type Date Time Source
KWAL Decoded METAR 2020/01/19 13:54 UTC NOAA

WALLOPS FLIGHT FAC AIRPORT , VA, United States (KWAL) 37-56N 075-28W 14M
Jan 19, 2020 - 08:54 AM EST / 2020.01.19 1354 UTC
Wind: from the NNW (330 degrees) at 6 MPH (5 KT):0
Visibility: 10 mile(s):0
Sky conditions: mostly cloudy
Temperature: 46.9 F (8.3 C)
Dew Point: 44.1 F (6.7 C)
Relative Humidity: 89%
Pressure (altimeter): 29.82 in. Hg (1009 hPa)
ob: KWAL 191354Z AUTO 33005KT 10SM FEW012 BKN019 08/07 A2982 RMK AO2 SLP095 T00830067
cycle: 14

Station Type Date Time Source
KWAL TAF UTC NOAA

Error!

Example: see airport list